createdAt,value
2017-12-26T00:00:17.352Z,-0.20
2017-12-26T00:02:45.819Z,-0.20
2017-12-26T00:05:14.042Z,-0.20
2017-12-26T00:07:42.993Z,-0.30
2017-12-26T00:10:11.746Z,-0.30
2017-12-26T00:12:41.727Z,-0.30
2017-12-26T00:15:10.104Z,-0.30
2017-12-26T00:17:38.343Z,-0.30
2017-12-26T00:20:06.519Z,-0.40
2017-12-26T00:22:35.502Z,-0.30
2017-12-26T00:25:04.429Z,-0.30
2017-12-26T00:27:32.916Z,-0.50
2017-12-26T00:30:02.214Z,-0.50
2017-12-26T00:32:31.336Z,-0.50
2017-12-26T00:35:00.074Z,-0.40
2017-12-26T00:37:30.321Z,-0.40
2017-12-26T00:39:59.678Z,-0.40
2017-12-26T00:42:29.106Z,-0.40
2017-12-26T00:44:57.379Z,-0.40
2017-12-26T00:47:26.056Z,-0.40
2017-12-26T00:49:54.999Z,-0.40
2017-12-26T00:52:23.653Z,-0.40
2017-12-26T00:54:52.132Z,-0.40
2017-12-26T00:57:20.358Z,-0.30
2017-12-26T00:59:48.567Z,-0.20
2017-12-26T01:02:18.553Z,-0.20
2017-12-26T01:04:47.402Z,-0.30
2017-12-26T01:07:16.133Z,-0.40
2017-12-26T01:09:44.739Z,-0.50
2017-12-26T01:12:13.074Z,-0.50
2017-12-26T01:14:41.059Z,-0.40
2017-12-26T01:17:09.742Z,-0.40
2017-12-26T01:19:39.746Z,-0.20
2017-12-26T01:22:08.936Z,-0.20
2017-12-26T01:24:37.834Z,-0.20
2017-12-26T01:27:07.341Z,-0.20
2017-12-26T01:29:35.994Z,-0.30
2017-12-26T01:32:04.332Z,-0.30
2017-12-26T01:34:32.692Z,-0.20
2017-12-26T01:37:01.857Z,-0.30
2017-12-26T01:39:30.427Z,-0.30
2017-12-26T01:41:59.693Z,-0.40
2017-12-26T01:44:28.774Z,-0.40
2017-12-26T01:46:58.379Z,-0.40
2017-12-26T01:49:27.152Z,-0.40
2017-12-26T01:51:56.086Z,-0.40
2017-12-26T01:54:25.068Z,-0.30
2017-12-26T01:56:53.133Z,-0.20
2017-12-26T01:59:21.644Z,-0.20
2017-12-26T02:01:52.229Z,-0.20
2017-12-26T02:04:22.326Z,-0.30
2017-12-26T02:06:51.378Z,-0.40
2017-12-26T02:09:19.706Z,-0.40
2017-12-26T02:11:49.026Z,-0.30
2017-12-26T02:14:17.681Z,-0.40
2017-12-26T02:16:46.067Z,-0.40
2017-12-26T02:19:14.960Z,-0.30
2017-12-26T02:21:43.658Z,-0.40
2017-12-26T02:24:12.531Z,-0.40
2017-12-26T02:26:41.712Z,-0.50
2017-12-26T02:29:10.381Z,-0.50
2017-12-26T02:31:39.392Z,-0.50
2017-12-26T02:34:07.962Z,-0.50
2017-12-26T02:36:37.580Z,-0.40
2017-12-26T02:39:06.887Z,-0.50
2017-12-26T02:41:36.209Z,-0.50
2017-12-26T02:44:04.904Z,-0.50
2017-12-26T02:46:33.914Z,-0.50
2017-12-26T02:49:03.017Z,-0.50
2017-12-26T02:51:31.196Z,-0.60
2017-12-26T02:54:00.987Z,-0.60
2017-12-26T02:56:30.458Z,-0.60
2017-12-26T02:58:59.327Z,-0.50
2017-12-26T03:01:28.107Z,-0.50
2017-12-26T03:03:56.771Z,-0.40
2017-12-26T03:06:25.888Z,-0.50
2017-12-26T03:08:54.307Z,-0.50
2017-12-26T03:11:23.339Z,-0.50
2017-12-26T03:13:51.617Z,-0.60
2017-12-26T03:16:20.534Z,-0.50
2017-12-26T03:18:49.255Z,-0.50
2017-12-26T03:21:18.628Z,-0.40
2017-12-26T03:23:47.555Z,-0.40
2017-12-26T03:26:16.926Z,-0.60
2017-12-26T03:28:45.744Z,-0.50
2017-12-26T03:31:14.524Z,-0.50
2017-12-26T03:33:43.780Z,-0.60
2017-12-26T03:36:13.155Z,-0.60
2017-12-26T03:38:42.021Z,-0.70
2017-12-26T03:41:11.385Z,-0.70
2017-12-26T03:43:40.333Z,-0.70
2017-12-26T03:46:09.916Z,-0.60
2017-12-26T03:48:38.129Z,-0.60
2017-12-26T03:51:06.506Z,-0.60
2017-12-26T03:53:35.242Z,-0.60
2017-12-26T03:56:04.053Z,-0.70
2017-12-26T03:58:33.608Z,-0.80
2017-12-26T04:01:02.125Z,-0.80
2017-12-26T04:03:32.387Z,-0.80
2017-12-26T04:06:00.742Z,-0.80
2017-12-26T04:08:28.999Z,-0.80
2017-12-26T04:10:57.994Z,-0.70
2017-12-26T04:13:26.921Z,-0.70
2017-12-26T04:15:55.224Z,-0.70
2017-12-26T04:18:23.808Z,-0.70
2017-12-26T04:20:52.846Z,-0.70
2017-12-26T04:23:22.332Z,-0.60
2017-12-26T04:25:51.697Z,-0.60
2017-12-26T04:28:20.449Z,-0.60
2017-12-26T04:30:49.169Z,-0.60
2017-12-26T04:33:18.019Z,-0.50
2017-12-26T04:35:47.624Z,-0.60
2017-12-26T04:38:17.325Z,-0.50
2017-12-26T04:40:45.635Z,-0.40
2017-12-26T04:43:15.174Z,-0.50
2017-12-26T04:45:43.372Z,-0.60
2017-12-26T04:48:12.575Z,-0.60
2017-12-26T04:50:40.960Z,-0.50
2017-12-26T04:53:11.402Z,-0.50
2017-12-26T04:55:39.656Z,-0.50
2017-12-26T04:58:08.505Z,-0.60
2017-12-26T05:00:37.883Z,-0.60
2017-12-26T05:03:06.898Z,-0.60
2017-12-26T05:05:35.481Z,-0.60
2017-12-26T05:08:04.539Z,-0.60
2017-12-26T05:10:33.263Z,-0.60
2017-12-26T05:13:02.523Z,-0.50
2017-12-26T05:15:31.181Z,-0.40
2017-12-26T05:18:00.576Z,-0.40
2017-12-26T05:20:29.459Z,-0.50
2017-12-26T05:22:57.992Z,-0.50
2017-12-26T05:25:26.134Z,-0.40
2017-12-26T05:27:54.859Z,-0.60
2017-12-26T05:30:23.547Z,-0.40
2017-12-26T05:32:54.005Z,-0.60
2017-12-26T05:35:22.351Z,-0.70
2017-12-26T05:37:52.194Z,-0.80
2017-12-26T05:40:20.562Z,-0.80
2017-12-26T05:42:49.097Z,-0.90
2017-12-26T05:45:17.634Z,-1.00
2017-12-26T05:47:46.208Z,-1.00
2017-12-26T05:50:16.250Z,-0.80
2017-12-26T05:52:44.774Z,-0.80
2017-12-26T05:55:12.971Z,-0.80
2017-12-26T05:57:42.869Z,-0.80
2017-12-26T06:00:11.508Z,-0.70
2017-12-26T06:02:39.860Z,-0.80
2017-12-26T06:05:09.426Z,-0.80
2017-12-26T06:07:38.467Z,-0.80
2017-12-26T06:10:07.744Z,-0.80
2017-12-26T06:12:37.121Z,-0.80
2017-12-26T06:15:06.696Z,-0.90
2017-12-26T06:17:35.033Z,-0.90
2017-12-26T06:20:04.473Z,-0.90
2017-12-26T06:22:33.327Z,-0.90
2017-12-26T06:25:01.765Z,-1.00
2017-12-26T06:27:32.090Z,-1.00
2017-12-26T06:30:00.287Z,-1.00
2017-12-26T06:32:29.412Z,-1.10
2017-12-26T06:34:57.751Z,-1.00
2017-12-26T06:37:26.008Z,-1.00
2017-12-26T06:39:54.197Z,-0.90
2017-12-26T06:42:23.503Z,-1.00
2017-12-26T06:44:52.198Z,-0.90
2017-12-26T06:47:21.073Z,-0.90
2017-12-26T06:49:50.040Z,-1.00
2017-12-26T06:52:19.027Z,-1.00
2017-12-26T06:54:48.081Z,-1.00
2017-12-26T06:57:17.752Z,-1.20
2017-12-26T06:59:47.873Z,-1.10
2017-12-26T07:02:16.948Z,-1.30
2017-12-26T07:04:45.343Z,-1.30
2017-12-26T07:07:14.358Z,-1.20
2017-12-26T07:09:43.339Z,-1.20
2017-12-26T07:12:12.551Z,-1.20
2017-12-26T07:14:41.396Z,-1.20
2017-12-26T07:17:09.677Z,-1.30
2017-12-26T07:19:37.730Z,-1.10
2017-12-26T07:22:07.022Z,-1.20
2017-12-26T07:24:35.646Z,-1.10
2017-12-26T07:27:05.045Z,-1.00
2017-12-26T07:29:34.639Z,-1.00
2017-12-26T07:32:03.525Z,-1.10
2017-12-26T07:34:33.569Z,-1.10
2017-12-26T07:37:01.897Z,-1.10
2017-12-26T07:39:30.004Z,-1.00
2017-12-26T07:41:59.787Z,-1.10
2017-12-26T07:44:29.111Z,-1.20
2017-12-26T07:46:58.195Z,-1.10
2017-12-26T07:49:27.506Z,-1.10
2017-12-26T07:51:55.747Z,-1.10
2017-12-26T07:54:24.412Z,-1.20
2017-12-26T07:56:52.585Z,-1.30
2017-12-26T07:59:21.187Z,-1.30
2017-12-26T08:01:51.322Z,-1.30
2017-12-26T08:04:19.894Z,-1.20
2017-12-26T08:06:50.732Z,-0.90
2017-12-26T08:09:18.812Z,-1.00
2017-12-26T08:11:47.813Z,-0.90
2017-12-26T08:14:17.647Z,-0.70
2017-12-26T08:16:46.145Z,-0.70
2017-12-26T08:19:15.903Z,-0.80
2017-12-26T08:21:44.431Z,-0.70
2017-12-26T08:24:12.747Z,-0.70
2017-12-26T08:26:41.669Z,-0.60
2017-12-26T08:29:10.095Z,-0.50
2017-12-26T08:31:39.497Z,-0.60
2017-12-26T08:34:08.700Z,-0.70
2017-12-26T08:36:37.599Z,-0.70
2017-12-26T08:39:06.470Z,-0.60
2017-12-26T08:41:35.389Z,-0.40
2017-12-26T08:44:04.051Z,-0.30
2017-12-26T08:46:32.982Z,-0.20
2017-12-26T08:49:01.441Z,-0.10
2017-12-26T08:51:29.936Z,0.00
2017-12-26T08:53:58.189Z,0.20
2017-12-26T08:56:26.774Z,0.20
2017-12-26T08:58:55.745Z,-0.10
2017-12-26T09:01:23.955Z,-0.10
2017-12-26T09:03:53.210Z,0.00
2017-12-26T09:06:21.546Z,0.20
2017-12-26T09:08:49.885Z,0.20
2017-12-26T09:11:18.768Z,-0.10
2017-12-26T09:13:46.972Z,-0.20
2017-12-26T09:16:15.116Z,-0.30
2017-12-26T09:18:44.104Z,-0.50
2017-12-26T09:21:12.633Z,-0.50
2017-12-26T09:23:40.870Z,-0.40
2017-12-26T09:26:09.125Z,-0.40
2017-12-26T09:28:38.146Z,-0.40
2017-12-26T09:31:06.906Z,-0.50
2017-12-26T09:33:34.959Z,-0.40
2017-12-26T09:36:03.614Z,-0.20
2017-12-26T09:38:32.108Z,0.00
2017-12-26T09:41:00.853Z,0.30
2017-12-26T09:43:29.395Z,0.50
2017-12-26T09:45:59.013Z,0.40
2017-12-26T09:48:27.581Z,0.20
2017-12-26T09:50:55.561Z,0.50
2017-12-26T09:53:23.710Z,0.70
2017-12-26T09:55:52.734Z,0.70
2017-12-26T09:58:23.028Z,1.00
2017-12-26T10:00:52.357Z,1.00
2017-12-26T10:03:20.615Z,1.20
2017-12-26T10:05:49.691Z,1.50
2017-12-26T10:08:18.100Z,1.90
2017-12-26T10:10:46.279Z,1.80
2017-12-26T10:13:14.465Z,1.40
2017-12-26T10:15:43.734Z,1.50
2017-12-26T10:18:13.094Z,1.40
2017-12-26T10:20:42.536Z,1.90
2017-12-26T10:23:11.987Z,1.90
2017-12-26T10:25:41.102Z,2.20
2017-12-26T10:28:09.625Z,2.30
2017-12-26T10:30:39.556Z,2.70
2017-12-26T10:33:08.462Z,2.60
2017-12-26T10:35:36.613Z,2.70
2017-12-26T10:38:05.970Z,2.80
2017-12-26T10:40:35.228Z,2.80
2017-12-26T10:43:03.995Z,2.60
2017-12-26T10:45:32.230Z,2.40
2017-12-26T10:48:01.131Z,2.40
2017-12-26T10:50:30.257Z,2.70
2017-12-26T10:52:59.224Z,2.70
2017-12-26T10:55:28.803Z,2.70
2017-12-26T10:57:57.222Z,2.70
2017-12-26T11:00:26.470Z,2.50
2017-12-26T11:02:54.695Z,2.60
2017-12-26T11:05:23.766Z,2.80
2017-12-26T11:07:51.960Z,2.60
2017-12-26T11:10:20.484Z,2.60
2017-12-26T11:12:49.379Z,2.60
2017-12-26T11:15:17.417Z,2.70
2017-12-26T11:17:46.149Z,2.60
2017-12-26T11:20:15.335Z,2.80
2017-12-26T11:22:43.877Z,3.00
2017-12-26T11:25:13.730Z,3.10
2017-12-26T11:27:42.410Z,3.10
2017-12-26T11:30:11.730Z,3.20
2017-12-26T11:32:42.269Z,3.40
2017-12-26T11:35:11.492Z,3.40
2017-12-26T11:37:40.548Z,3.50
2017-12-26T11:40:09.397Z,3.60
2017-12-26T11:42:38.181Z,3.70
2017-12-26T11:45:07.499Z,4.00
2017-12-26T11:47:36.695Z,4.60
2017-12-26T11:50:05.456Z,4.50
2017-12-26T11:52:35.720Z,4.40
2017-12-26T11:55:04.735Z,4.50
2017-12-26T11:57:33.157Z,4.40
2017-12-26T12:00:01.750Z,4.60
2017-12-26T12:02:30.433Z,4.40
2017-12-26T12:04:59.862Z,4.40
2017-12-26T12:07:28.410Z,4.60
2017-12-26T12:09:56.817Z,4.70
2017-12-26T12:12:25.900Z,4.90
2017-12-26T12:14:54.184Z,5.30
2017-12-26T12:17:22.883Z,5.40
2017-12-26T12:19:51.751Z,5.80
2017-12-26T12:22:20.433Z,5.80
2017-12-26T12:24:48.622Z,6.00
2017-12-26T12:27:17.313Z,6.00
2017-12-26T12:29:45.857Z,5.50
2017-12-26T12:32:15.328Z,5.30
2017-12-26T12:34:45.197Z,5.40
2017-12-26T12:37:13.894Z,5.50
2017-12-26T12:39:42.645Z,5.50
2017-12-26T12:42:11.547Z,5.60
2017-12-26T12:44:39.612Z,5.50
2017-12-26T12:47:09.111Z,5.30
2017-12-26T12:49:37.311Z,5.50
2017-12-26T12:52:07.069Z,5.50
2017-12-26T12:54:35.276Z,5.50
2017-12-26T12:57:04.945Z,5.50
2017-12-26T12:59:33.517Z,5.60
2017-12-26T13:02:01.829Z,5.50
2017-12-26T13:04:30.366Z,5.40
2017-12-26T13:06:59.573Z,5.40
2017-12-26T13:09:28.109Z,5.50
2017-12-26T13:11:56.988Z,5.50
2017-12-26T13:14:26.474Z,5.40
2017-12-26T13:16:55.049Z,5.40
2017-12-26T13:19:23.239Z,5.40
2017-12-26T13:21:51.312Z,5.40
2017-12-26T13:24:19.501Z,5.50
2017-12-26T13:26:48.727Z,5.50
2017-12-26T13:29:17.369Z,5.50
2017-12-26T13:31:47.725Z,5.60
2017-12-26T13:34:16.243Z,5.50
2017-12-26T13:36:44.455Z,5.70
2017-12-26T13:39:14.313Z,5.60
2017-12-26T13:41:43.015Z,5.70
2017-12-26T13:44:12.027Z,5.70
2017-12-26T13:46:40.351Z,5.70
2017-12-26T13:49:09.743Z,5.70
2017-12-26T13:51:38.137Z,5.70
2017-12-26T13:54:06.988Z,5.80
2017-12-26T13:56:35.947Z,5.80
2017-12-26T13:59:04.305Z,5.80
2017-12-26T14:01:32.898Z,5.70
2017-12-26T14:04:01.199Z,5.70
2017-12-26T14:06:29.789Z,5.80
2017-12-26T14:08:58.776Z,5.70
2017-12-26T14:11:29.047Z,5.80
2017-12-26T14:13:57.458Z,5.80
2017-12-26T14:16:26.606Z,5.70
2017-12-26T14:18:55.165Z,5.70
2017-12-26T14:21:24.698Z,5.70
2017-12-26T14:23:53.404Z,5.70
2017-12-26T14:26:23.044Z,5.70
2017-12-26T14:28:52.192Z,5.80
2017-12-26T14:31:20.928Z,5.80
2017-12-26T14:33:49.870Z,5.60
2017-12-26T14:36:18.179Z,5.70
2017-12-26T14:38:47.299Z,5.70
2017-12-26T14:41:16.905Z,5.70
2017-12-26T14:43:45.716Z,5.70
2017-12-26T14:46:14.356Z,5.80
2017-12-26T14:48:42.945Z,5.70
2017-12-26T14:51:13.188Z,5.70
2017-12-26T14:53:41.844Z,5.70
2017-12-26T14:56:11.558Z,5.70
2017-12-26T14:58:40.286Z,5.70
2017-12-26T15:01:08.914Z,5.70
2017-12-26T15:03:37.897Z,5.70
2017-12-26T15:06:06.498Z,5.60
2017-12-26T15:08:35.974Z,5.60
2017-12-26T15:11:06.421Z,5.50
2017-12-26T15:13:35.664Z,5.50
2017-12-26T15:16:04.770Z,5.50
2017-12-26T15:18:33.097Z,5.50
2017-12-26T15:21:01.694Z,5.40
2017-12-26T15:23:30.494Z,5.40
2017-12-26T15:25:59.461Z,5.40
2017-12-26T15:28:28.427Z,5.40
2017-12-26T15:30:56.690Z,5.40
2017-12-26T15:33:24.844Z,5.40
2017-12-26T15:35:53.503Z,5.30
2017-12-26T15:38:23.335Z,5.30
2017-12-26T15:40:52.099Z,5.30
2017-12-26T15:43:20.581Z,5.30
2017-12-26T15:45:48.897Z,5.20
2017-12-26T15:48:17.893Z,5.20
2017-12-26T15:50:46.497Z,5.20
2017-12-26T15:53:15.896Z,5.00
2017-12-26T15:55:44.302Z,5.00
2017-12-26T15:58:12.601Z,5.00
2017-12-26T16:00:42.065Z,4.90
2017-12-26T16:03:11.337Z,4.90
2017-12-26T16:05:39.603Z,4.90
2017-12-26T16:08:08.232Z,4.90
2017-12-26T16:10:37.425Z,4.90
2017-12-26T16:13:05.953Z,5.00
2017-12-26T16:15:34.384Z,5.00
2017-12-26T16:18:03.039Z,5.10
2017-12-26T16:20:31.658Z,5.10
2017-12-26T16:23:00.858Z,5.10
2017-12-26T16:25:30.005Z,5.10
2017-12-26T16:27:58.667Z,5.20
2017-12-26T16:30:27.746Z,5.20
2017-12-26T16:32:56.324Z,5.20
2017-12-26T16:35:25.895Z,5.20
2017-12-26T16:37:56.118Z,5.20
2017-12-26T16:40:24.849Z,5.20
2017-12-26T16:42:53.804Z,5.30
2017-12-26T16:45:23.475Z,5.20
2017-12-26T16:47:52.382Z,5.20
2017-12-26T16:50:21.674Z,5.20
2017-12-26T16:52:50.607Z,5.20
2017-12-26T16:55:19.080Z,5.20
2017-12-26T16:57:47.826Z,5.20
2017-12-26T17:00:16.937Z,5.20
2017-12-26T17:02:45.710Z,5.20
2017-12-26T17:05:15.648Z,5.20
2017-12-26T17:07:44.674Z,5.10
2017-12-26T17:10:13.270Z,5.10
2017-12-26T17:12:42.155Z,5.00
2017-12-26T17:15:12.556Z,5.00
2017-12-26T17:17:41.515Z,4.80
2017-12-26T17:20:10.135Z,4.70
2017-12-26T17:22:38.884Z,4.50
2017-12-26T17:25:08.139Z,4.30
2017-12-26T17:27:36.614Z,4.20
2017-12-26T17:30:05.616Z,4.10
2017-12-26T17:32:35.107Z,3.80
2017-12-26T17:35:04.613Z,3.80
2017-12-26T17:37:34.702Z,3.50
2017-12-26T17:40:04.469Z,3.50
2017-12-26T17:42:34.468Z,3.50
2017-12-26T17:45:03.385Z,3.40
2017-12-26T17:47:32.162Z,3.40
2017-12-26T17:50:01.237Z,3.10
2017-12-26T17:52:30.779Z,2.90
2017-12-26T17:55:00.133Z,2.80
2017-12-26T17:57:29.188Z,2.70
2017-12-26T17:59:58.026Z,2.70
2017-12-26T18:02:27.113Z,2.50
2017-12-26T18:04:55.526Z,2.50
2017-12-26T18:07:23.683Z,2.40
2017-12-26T18:09:52.005Z,2.30
2017-12-26T18:12:20.843Z,2.10
2017-12-26T18:14:50.541Z,2.00
2017-12-26T18:17:19.268Z,1.90
2017-12-26T18:19:47.807Z,1.80
2017-12-26T18:22:17.420Z,2.10
2017-12-26T18:24:47.352Z,2.20
2017-12-26T18:27:16.842Z,2.20
2017-12-26T18:29:46.418Z,2.20
2017-12-26T18:32:15.260Z,2.10
2017-12-26T18:34:44.014Z,2.10
2017-12-26T18:37:12.339Z,2.20
2017-12-26T18:39:41.900Z,2.20
2017-12-26T18:42:11.588Z,2.00
2017-12-26T18:44:40.664Z,2.00
2017-12-26T18:47:08.900Z,1.80
2017-12-26T18:49:37.529Z,1.90
2017-12-26T18:52:06.069Z,2.00
2017-12-26T18:54:35.260Z,2.00
2017-12-26T18:57:03.914Z,2.00
2017-12-26T18:59:33.778Z,1.90
2017-12-26T19:02:02.241Z,1.90
2017-12-26T19:04:30.667Z,1.70
2017-12-26T19:06:59.819Z,1.50
2017-12-26T19:09:27.846Z,1.50
2017-12-26T19:11:56.651Z,1.60
2017-12-26T19:14:26.037Z,1.50
2017-12-26T19:16:54.695Z,1.50
2017-12-26T19:19:23.693Z,1.40
2017-12-26T19:21:52.073Z,1.40
2017-12-26T19:24:20.786Z,1.40
2017-12-26T19:26:49.692Z,1.40
2017-12-26T19:29:18.744Z,1.40
2017-12-26T19:31:47.359Z,1.40
2017-12-26T19:34:16.045Z,1.50
2017-12-26T19:36:44.743Z,1.40
2017-12-26T19:39:13.967Z,1.50
2017-12-26T19:41:42.818Z,1.40
2017-12-26T19:44:10.950Z,1.40
2017-12-26T19:46:39.769Z,1.30
2017-12-26T19:49:08.507Z,1.20
2017-12-26T19:51:37.829Z,1.20
2017-12-26T19:54:06.451Z,1.20
2017-12-26T19:56:35.163Z,1.10
2017-12-26T19:59:04.092Z,1.00
2017-12-26T20:01:33.172Z,0.90
2017-12-26T20:04:01.802Z,0.90
2017-12-26T20:06:31.094Z,0.90
2017-12-26T20:08:59.495Z,0.80
2017-12-26T20:11:28.200Z,0.80
2017-12-26T20:13:57.806Z,0.80
2017-12-26T20:16:28.081Z,0.80
2017-12-26T20:18:56.343Z,0.70
2017-12-26T20:21:25.046Z,0.80
2017-12-26T20:23:54.194Z,0.90
2017-12-26T20:26:23.015Z,0.90
2017-12-26T20:28:51.498Z,0.90
2017-12-26T20:31:19.969Z,1.00
2017-12-26T20:33:48.462Z,1.00
2017-12-26T20:36:18.237Z,0.90
2017-12-26T20:38:47.419Z,0.90
2017-12-26T20:41:15.701Z,0.80
2017-12-26T20:43:46.338Z,0.80
2017-12-26T20:46:14.816Z,0.80
2017-12-26T20:48:43.086Z,0.70
2017-12-26T20:51:11.490Z,0.70
2017-12-26T20:53:40.746Z,0.70
2017-12-26T20:56:09.437Z,0.60
2017-12-26T20:58:38.104Z,1.30
2017-12-26T21:01:07.438Z,0.60
2017-12-26T21:03:36.758Z,0.50
2017-12-26T21:06:05.618Z,0.50
2017-12-26T21:08:35.275Z,0.50
2017-12-26T21:11:03.761Z,0.40
2017-12-26T21:13:33.926Z,0.40
2017-12-26T21:16:02.591Z,0.40
2017-12-26T21:18:31.866Z,0.40
2017-12-26T21:21:00.857Z,0.40
2017-12-26T21:23:30.238Z,0.40
2017-12-26T21:25:58.419Z,0.40
2017-12-26T21:28:27.186Z,0.40
2017-12-26T21:30:55.534Z,0.40
2017-12-26T21:33:25.154Z,0.30
2017-12-26T21:35:53.913Z,0.30
2017-12-26T21:38:22.516Z,0.30
2017-12-26T21:40:51.528Z,0.30
2017-12-26T21:43:21.022Z,0.30
2017-12-26T21:45:49.764Z,0.30
2017-12-26T21:48:18.360Z,0.30
2017-12-26T21:50:47.128Z,0.30
2017-12-26T21:53:15.542Z,0.40
2017-12-26T21:55:44.979Z,0.30
2017-12-26T21:58:14.882Z,0.30
2017-12-26T22:00:43.087Z,0.20
2017-12-26T22:03:12.390Z,0.20
2017-12-26T22:05:41.178Z,0.20
2017-12-26T22:08:09.600Z,0.30
2017-12-26T22:10:37.874Z,0.30
2017-12-26T22:13:06.942Z,0.20
2017-12-26T22:15:37.330Z,0.20
2017-12-26T22:18:06.707Z,0.10
2017-12-26T22:20:35.856Z,0.10
2017-12-26T22:23:04.603Z,0.20
2017-12-26T22:25:33.002Z,0.20
2017-12-26T22:28:01.809Z,0.10
2017-12-26T22:30:30.420Z,0.10
2017-12-26T22:33:00.126Z,0.10
2017-12-26T22:35:29.337Z,0.10
2017-12-26T22:37:58.607Z,0.10
2017-12-26T22:40:28.530Z,0.10
2017-12-26T22:42:57.603Z,0.10
2017-12-26T22:45:26.796Z,0.10
2017-12-26T22:47:55.662Z,0.10
2017-12-26T22:50:24.038Z,0.10
2017-12-26T22:52:53.915Z,0.10
2017-12-26T22:55:22.140Z,0.10
2017-12-26T22:57:51.135Z,0.10
2017-12-26T23:00:20.878Z,0.10
2017-12-26T23:02:49.117Z,0.10
2017-12-26T23:05:18.519Z,0.10
2017-12-26T23:07:48.122Z,0.10
2017-12-26T23:10:17.431Z,0.10
2017-12-26T23:12:46.101Z,0.10
2017-12-26T23:15:14.934Z,0.00
2017-12-26T23:17:43.699Z,0.00
2017-12-26T23:20:12.728Z,-0.10
2017-12-26T23:22:41.912Z,-0.10
2017-12-26T23:25:10.451Z,-0.10
2017-12-26T23:27:38.781Z,-0.10
2017-12-26T23:30:07.523Z,-0.20
2017-12-26T23:32:35.893Z,-0.10
2017-12-26T23:35:04.083Z,-0.10
2017-12-26T23:37:32.586Z,-0.20
2017-12-26T23:40:01.836Z,-0.20
2017-12-26T23:42:32.069Z,-0.10
2017-12-26T23:45:00.629Z,-0.10
2017-12-26T23:47:28.894Z,-0.10
2017-12-26T23:49:57.482Z,-0.10
2017-12-26T23:52:26.363Z,-0.30
2017-12-26T23:54:55.734Z,-0.30
2017-12-26T23:57:24.786Z,-0.30
2017-12-26T23:59:53.821Z,-0.40
